createdAt,value
2022-12-09T00:05:23.663Z,36.3
2022-12-09T00:10:47.825Z,36.2
2022-12-09T00:16:11.332Z,36.1
2022-12-09T00:21:19.864Z,36.1
2022-12-09T00:26:43.597Z,36
2022-12-09T00:32:24.379Z,36
2022-12-09T00:38:04.960Z,35.9
2022-12-09T00:43:45.400Z,35.9
2022-12-09T00:49:10.978Z,35.8
2022-12-09T00:54:50.856Z,35.8
2022-12-09T01:00:30.521Z,35.8
2022-12-09T01:06:12.489Z,35.7
2022-12-09T01:11:53.196Z,35.6
2022-12-09T01:17:02.037Z,35.6
2022-12-09T01:22:42.535Z,35.6
2022-12-09T01:28:06.792Z,35.5
2022-12-09T01:33:32.757Z,35.4
2022-12-09T01:38:57.641Z,35.4
2022-12-09T01:44:22.584Z,35.4
2022-12-09T01:50:03.069Z,35.3
2022-12-09T01:55:43.017Z,35.3
2022-12-09T02:01:24.522Z,35.3
2022-12-09T02:07:07.155Z,37.3
2022-12-09T02:12:47.842Z,38.8
2022-12-09T02:18:29.186Z,39.6
2022-12-09T02:24:09.690Z,40.5
2022-12-09T02:29:35.292Z,41.2
2022-12-09T02:35:17.459Z,41.9
2022-12-09T02:40:58.166Z,42.6
2022-12-09T02:46:42.624Z,43.3
2022-12-09T02:52:25.295Z,44.1
2022-12-09T02:57:50.567Z,44.9
2022-12-09T03:03:18.462Z,45.3
2022-12-09T03:08:43.337Z,45.5
2022-12-09T03:14:24.802Z,45.6
2022-12-09T03:20:06.106Z,45.9
2022-12-09T03:25:32.010Z,46.1
2022-12-09T03:31:13.877Z,46.3
2022-12-09T03:36:40.385Z,46.4
2022-12-09T03:42:27.295Z,46.4
2022-12-09T03:47:38.118Z,46.4
2022-12-09T03:53:02.690Z,46.3
2022-12-09T03:58:28.582Z,46.3
2022-12-09T04:03:56.173Z,46.3
2022-12-09T04:09:37.780Z,46.3
2022-12-09T04:15:22.696Z,46.3
2022-12-09T04:21:04.711Z,46.2
2022-12-09T04:26:50.924Z,46.3
2022-12-09T04:32:32.892Z,46.1
2022-12-09T04:37:58.523Z,46.1
2022-12-09T04:43:29.285Z,46
2022-12-09T04:48:41.209Z,45.9
2022-12-09T04:54:29.782Z,45.9
2022-12-09T05:00:10.195Z,45.8
2022-12-09T05:05:57.124Z,45.6
2022-12-09T05:11:28.941Z,45.4
2022-12-09T05:16:54.670Z,45.3
2022-12-09T05:22:07.991Z,45.3
2022-12-09T05:27:37.855Z,45.1
2022-12-09T05:33:24.481Z,44.9
2022-12-09T05:39:19.853Z,44.9
2022-12-09T05:45:11.019Z,44.8
2022-12-09T05:50:58.992Z,44.6
2022-12-09T05:56:46.249Z,44.4
2022-12-09T06:02:14.105Z,44.3
2022-12-09T06:07:30.243Z,44.3
2022-12-09T06:13:19.420Z,44.1
2022-12-09T06:19:06.989Z,43.9
2022-12-09T06:24:54.018Z,43.8
2022-12-09T06:30:40.740Z,43.8
2022-12-09T06:36:55.451Z,43.6
2022-12-09T06:42:38.272Z,43.5
2022-12-09T06:48:09.199Z,43.4
2022-12-09T06:53:52.172Z,42.9
2022-12-09T06:59:22.913Z,38.4
2022-12-09T07:05:12.148Z,33.8
2022-12-09T07:10:58.883Z,31.5
2022-12-09T07:16:43.754Z,30
2022-12-09T07:22:37.099Z,29.1
2022-12-09T07:28:27.054Z,28.3
2022-12-09T07:34:13.641Z,27.6
2022-12-09T07:40:04.855Z,27.1
2022-12-09T07:45:54.345Z,26.7
2022-12-09T07:51:30.281Z,26.4
2022-12-09T07:57:13.168Z,26.1
2022-12-09T08:02:57.762Z,26
2022-12-09T08:08:51.975Z,25.8
2022-12-09T08:14:44.553Z,25.7
2022-12-09T08:20:32.598Z,25.6
2022-12-09T08:26:18.465Z,25.5
2022-12-09T08:32:08.281Z,25.4
2022-12-09T08:37:53.386Z,25.4
2022-12-09T08:43:37.488Z,25.4
2022-12-09T08:49:23.270Z,25.3
2022-12-09T08:55:13.441Z,25.1
2022-12-09T09:00:55.133Z,24.9
2022-12-09T09:06:45.199Z,24.9
2022-12-09T09:12:36.199Z,24.9
2022-12-09T09:18:25.996Z,37.4
2022-12-09T09:24:13.037Z,36.4
2022-12-09T09:29:57.026Z,33.6
2022-12-09T09:35:44.398Z,32.1
2022-12-09T09:41:36.361Z,45.6
2022-12-09T09:47:21.601Z,46.8
2022-12-09T09:52:51.882Z,47.1
2022-12-09T09:58:42.934Z,48.9
2022-12-09T10:04:34.037Z,50.2
2022-12-09T10:10:23.995Z,51
2022-12-09T10:16:21.225Z,50
2022-12-09T10:21:56.620Z,49.6
2022-12-09T10:27:49.878Z,49.1
2022-12-09T10:33:42.062Z,48.7
2022-12-09T10:39:30.452Z,48.1
2022-12-09T10:44:58.660Z,47.6
2022-12-09T10:51:28.988Z,47
2022-12-09T10:57:15.715Z,46.6
2022-12-09T11:03:07.001Z,46.1
2022-12-09T11:08:59.122Z,45.8
2022-12-09T11:14:54.107Z,45.4
2022-12-09T11:20:45.457Z,44.9
2022-12-09T11:26:38.563Z,44.6
2022-12-09T11:33:08.766Z,45.1
2022-12-09T11:38:56.857Z,44.9
2022-12-09T11:44:27.840Z,44.3
2022-12-09T11:50:41.877Z,43.9
2022-12-09T11:56:04.367Z,43.3
2022-12-09T12:01:49.540Z,42.9
2022-12-09T12:07:34.530Z,42.4
2022-12-09T12:12:57.547Z,40.2
2022-12-09T12:18:20.614Z,38.4
2022-12-09T12:23:44.506Z,37.3
2022-12-09T12:29:34.288Z,36.4
2022-12-09T12:36:18.398Z,35.7
2022-12-09T12:41:46.114Z,35.1
2022-12-09T12:47:24.653Z,34.7
2022-12-09T12:53:43.543Z,34.3
2022-12-09T12:59:23.118Z,33.8
2022-12-09T13:05:05.490Z,33.4
2022-12-09T13:10:44.357Z,33.1
2022-12-09T13:16:29.310Z,32.8
2022-12-09T13:22:07.586Z,32.6
2022-12-09T13:27:51.246Z,32.4
2022-12-09T13:33:05.273Z,32.1
2022-12-09T13:38:33.574Z,31.9
2022-12-09T13:44:12.116Z,31.8
2022-12-09T13:49:55.690Z,31.6
2022-12-09T13:55:40.553Z,31.4
2022-12-09T14:01:21.342Z,31.3
2022-12-09T14:06:28.611Z,31.2
2022-12-09T14:12:13.313Z,31.1
2022-12-09T14:17:51.914Z,31
2022-12-09T14:23:30.565Z,30.9
2022-12-09T14:29:14.774Z,30.8
2022-12-09T14:34:53.992Z,30.7
2022-12-09T14:40:30.879Z,30.6
2022-12-09T14:46:08.861Z,30.6
2022-12-09T14:52:02.120Z,30.4
2022-12-09T14:57:44.689Z,30.4
2022-12-09T15:04:03.705Z,30.3
2022-12-09T15:09:27.370Z,30.3
2022-12-09T15:15:05.177Z,30.2
2022-12-09T15:20:58.236Z,30.1
2022-12-09T15:26:30.376Z,30.1
2022-12-09T15:32:08.193Z,30
2022-12-09T15:37:34.011Z,29.9
2022-12-09T15:42:57.284Z,29.9
